Cucamonga, California
Current Conditions -  °F | °C
As of 5:53 PM on Friday 24 Oct 2014 (Local Time) from KONT Reporting Station
Clear Clear  
Wind Chill: 84°   Ceiling: Unl
Heat Index: 84°   Visibility: 10mi
Dew Point: 25°   Wind: 10mph
Humidity: 12%   Direction: 260°W
Pressure: 29.94"   Gusts: NA
Location:  34.1001°N, 117.582°W
Report Text: KONT 250053Z 26009KT 10SM CLR 29/M04 A2994 RMK AO2 SLP125 T02891039
Loading
Personal Weather Stations






























Interactive Weather Map
Tropical Storm Tracking
New forecast layout! Learn more

10-Day Weather Forecast

Advertisements
Track Severe Weather on mobile